Map

Track Data

SID SEASON NUMBER BASIN SUBBASIN NAME ISO_TIME NATURE LAT LON WMO_WIND WMO_PRES WMO_AGENCY TRACK_TYPE DIST2LAND LANDFALL IFLAG USA_AGENCY USA_ATCF_ID USA_LAT USA_LON USA_RECORD USA_STATUS USA_WIND USA_PRES USA_SSHS USA_R34_NE USA_R34_SE USA_R34_SW USA_R34_NW USA_R50_NE USA_R50_SE USA_R50_SW USA_R50_NW USA_R64_NE USA_R64_SE USA_R64_SW USA_R64_NW USA_POCI USA_ROCI USA_RMW USA_EYE TOKYO_LAT TOKYO_LON TOKYO_GRADE TOKYO_WIND TOKYO_PRES TOKYO_R50_DIR TOKYO_R50_LONG TOKYO_R50_SHORT TOKYO_R30_DIR TOKYO_R30_LONG TOKYO_R30_SHORT TOKYO_LAND CMA_LAT CMA_LON CMA_CAT CMA_WIND CMA_PRES HKO_LAT HKO_LON HKO_CAT HKO_WIND HKO_PRES NEWDELHI_LAT NEWDELHI_LON NEWDELHI_GRADE NEWDELHI_WIND NEWDELHI_PRES NEWDELHI_CI NEWDELHI_DP NEWDELHI_POCI REUNION_LAT REUNION_LON REUNION_TYPE REUNION_WIND REUNION_PRES REUNION_TNUM REUNION_CI REUNION_RMW REUNION_R34_NE REUNION_R34_SE REUNION_R34_SW REUNION_R34_NW REUNION_R50_NE REUNION_R50_SE REUNION_R50_SW REUNION_R50_NW REUNION_R64_NE REUNION_R64_SE REUNION_R64_SW REUNION_R64_NW BOM_LAT BOM_LON BOM_TYPE BOM_WIND BOM_PRES BOM_TNUM BOM_CI BOM_RMW BOM_R34_NE BOM_R34_SE BOM_R34_SW BOM_R34_NW BOM_R50_NE BOM_R50_SE BOM_R50_SW BOM_R50_NW BOM_R64_NE BOM_R64_SE BOM_R64_SW BOM_R64_NW BOM_ROCI BOM_POCI BOM_EYE BOM_POS_METHOD BOM_PRES_METHOD NADI_LAT NADI_LON NADI_CAT NADI_WIND NADI_PRES WELLINGTON_LAT WELLINGTON_LON WELLINGTON_WIND WELLINGTON_PRES DS824_LAT DS824_LON DS824_STAGE DS824_WIND DS824_PRES TD9636_LAT TD9636_LON TD9636_STAGE TD9636_WIND TD9636_PRES TD9635_LAT TD9635_LON TD9635_WIND TD9635_PRES TD9635_ROCI NEUMANN_LAT NEUMANN_LON NEUMANN_CLASS NEUMANN_WIND NEUMANN_PRES MLC_LAT MLC_LON MLC_CLASS MLC_WIND MLC_PRES USA_GUST BOM_GUST BOM_GUST_PER REUNION_GUST REUNION_GUST_PER USA_SEAHGT USA_SEARAD_NE USA_SEARAD_SE USA_SEARAD_SW USA_SEARAD_NW STORM_SPEED STORM_DIR
1950064S13146 1950 18 SP EA NOT_NAMED 1950-03-04 23:00:00 NR -12.9500 146.250 1000 bom main 248 226 ______O___O___ -1 -13.0000 146.400 1000 -12.9000 146.100 7 9 182
1950064S13146 1950 18 SP EA NOT_NAMED 1950-03-05 00:00:00 TS -13.0980 146.247 main 226 196 O_____P__OP___ jtwc_sh SH181950 -13.1000 146.100 -1 -13.1384 146.439 -13.1000 146.400 TC 30 1000 -13.0545 146.125 7 9 172
1950064S13146 1950 18 SP EA NOT_NAMED 1950-03-05 03:00:00 TS -13.5593 146.345 main 187 163 P_____P__PP___ SH181950 -13.5600 146.217 -1 -13.5521 146.550 -13.6339 146.517 TC -13.5160 146.196 7 9 169
1950064S13146 1950 18 SP EA NOT_NAMED 1950-03-05 06:00:00 TS -14.0108 146.426 main 163 145 O_____P__PP___ jtwc_sh SH181950 -14.0000 146.300 -1 -13.9608 146.642 -14.1527 146.619 TC -13.9708 146.255 7 9 173
1950064S13146 1950 18 SP EA NOT_NAMED 1950-03-05 09:00:00 TS -14.4461 146.465 main 145 133 P_____P__PP___ SH181950 -14.4075 146.323 -1 -14.3606 146.701 -14.6411 146.689 TC -14.4138 146.292 7 9 176
1950064S13146 1950 18 SP EA NOT_NAMED 1950-03-05 11:00:00 TS -14.7203 146.469 main 133 130 P_____P__PO___ SH181950 -14.6693 146.311 -1 -14.6205 146.714 -14.9425 146.711 TC -14.7000 146.300 7 8 0
1950064S13146 1950 18 SP EA NOT_NAMED 1950-03-05 12:00:00 TS -14.8544 146.464 main 126 107 O_____P__PP___ jtwc_sh SH181950 -14.8000 146.300 -1 -14.7480 146.711 -15.0842 146.712 TC -14.8397 146.298 7 8 185
1950064S13146 1950 18 SP EA NOT_NAMED 1950-03-05 15:00:00 TS -15.2567 146.433 main 107 102 P_____P__PP___ SH181950 -15.2299 146.287 -1 -15.1191 146.659 -15.4668 146.671 TC -15.2375 146.260 7 8 190
1950064S13146 1950 18 SP EA NOT_NAMED 1950-03-05 18:00:00 TS -15.6060 146.327 main 102 67 O_____P__PP___ jtwc_sh SH181950 -15.6000 146.200 -1 -15.4701 146.530 -15.7738 146.549 TC -15.5863 146.159 7 7 206
1950064S13146 1950 18 SP EA NOT_NAMED 1950-03-05 21:00:00 TS -15.8713 146.127 main 67 44 P_____P__PP___ SH181950 -15.8524 146.010 -1 -15.7972 146.307 -15.9900 146.331 TC -15.8645 145.976 7 7 224
1950064S13146 1950 18 SP EA NOT_NAMED 1950-03-05 23:00:00 TS -15.9996 145.931 1000 bom main 44 33 P_____O__PO___ SH181950 -15.9609 145.817 -1 -16.0000 146.100 1000 -16.0761 146.124 TC -16.0000 145.800 7 7 239
1950064S13146 1950 18 SP EA NOT_NAMED 1950-03-06 00:00:00 TS -16.0499 145.814 main 33 0 O_____P__OP___ jtwc_sh SH181950 -16.0000 145.700 -1 -16.0960 145.978 999 -16.1000 146.000 TC 30 1000 -16.0536 145.695 7 8 254
1950064S13146 1950 18 SP EA NOT_NAMED 1950-03-06 03:00:00 TS -16.1496 145.397 main 0 0 P_____P__PP___ SH181950 -16.0800 145.287 -1 -16.3406 145.553 998 -16.0970 145.550 TC -16.1503 145.308 7 8 258
1950064S13146 1950 18 SP EA NOT_NAMED 1950-03-06 04:00:00 TS -16.1642 145.239 998 bom main 0 0 P_____O__PP___ SH181950 -16.0909 145.130 -1 -16.4000 145.400 998 -16.0752 145.378 TC -16.1641 145.160 7 9 269
1950064S13146 1950 18 SP EA NOT_NAMED 1950-03-06 06:00:00 TS -16.1582 144.903 main 0 0 O_____P__PP___ jtwc_sh SH181950 -16.1000 144.800 -1 -16.4119 145.063 -16.0089 145.011 TC -16.1700 144.844 7 10 274
1950064S13146 1950 18 SP EA NOT_NAMED 1950-03-06 09:00:00 TS -16.1086 144.373 main 0 0 P_____P__PP___ SH181950 -16.1300 144.300 -1 -16.2724 144.502 -15.8729 144.422 TC -16.1378 144.340 7 10 278
1950064S13146 1950 18 SP EA NOT_NAMED 1950-03-06 11:00:00 TS -16.0452 144.012 main 0 0 P_____P__PO___ SH181950 -16.1197 143.964 -1 -16.1126 144.111 -15.7742 144.022 TC -16.1000 144.000 7 11 281
1950064S13146 1950 18 SP EA NOT_NAMED 1950-03-06 12:00:00 TS -16.0031 143.831 main 0 0 O_____P__PP___ jtwc_sh SH181950 -16.1000 143.800 -1 -16.0225 143.914 -15.7265 143.824 TC -16.0665 143.819 7 11 287
1950064S13146 1950 18 SP EA NOT_NAMED 1950-03-06 15:00:00 TS -15.8356 143.308 main 0 0 P_____P__PP___ SH181950 -15.9424 143.342 -1 -15.7510 143.342 -15.6076 143.254 TC -15.9346 143.260 7 10 287
1950064S13146 1950 18 SP EA NOT_NAMED 1950-03-06 18:00:00 TS -15.7021 142.822 main 0 0 O_____P__PP___ jtwc_sh SH181950 -15.8000 142.900 -1 -15.5470 142.826 -15.5545 142.752 TC -15.8090 142.730 7 9 280
1950064S13146 1950 18 SP EA NOT_NAMED 1950-03-06 21:00:00 TS -15.6828 142.368 main 0 0 P_____P__PP___ SH181950 -15.7752 142.390 -1 -15.4999 142.406 -15.6057 142.355 TC -15.7581 142.299 7 8 265
1950064S13146 1950 18 SP EA NOT_NAMED 1950-03-06 23:00:00 TS -15.7589 142.135 996 bom main 0 0 P_____O__PO___ SH181950 -15.8387 142.104 -1 -15.6000 142.200 996 -15.7170 142.167 TC -15.8000 142.100 7 7 243
1950064S13146 1950 18 SP EA NOT_NAMED 1950-03-07 00:00:00 TS -15.8376 142.050 main 0 0 O_____P__OP___ jtwc_sh SH181950 -15.9000 142.000 -1 -15.7186 142.116 -15.8000 142.100 TC 35 996 -15.8692 142.034 7 7 206
1950064S13146 1950 18 SP EA NOT_NAMED 1950-03-07 03:00:00 TS -16.1841 141.915 main 0 0 P_____P__PP___ SH181950 -16.1973 141.845 -1 -16.1689 141.944 -16.1782 141.994 TC -16.1786 141.947 7 8 192
1950064S13146 1950 18 SP EA NOT_NAMED 1950-03-07 05:00:00 TS -16.4656 141.915 bom main 0 0 P_____O__PP___ SH181950 -16.4618 141.862 -1 -16.5000 141.900 -16.4604 141.986 TC -16.4441 141.968 7 9 0
1950064S13146 1950 18 SP EA NOT_NAMED 1950-03-07 06:00:00 TS -16.6086 141.937 main 0 0 O_____P__OP___ jtwc_sh SH181950 -16.6000 141.900 -1 -16.6563 141.886 -16.6000 142.000 TC -16.5869 141.998 7 9 165
1950064S13146 1950 18 SP EA NOT_NAMED 1950-03-07 09:00:00 TS -17.0317 142.078 main 0 0 P_____P__PP___ SH181950 -17.0076 142.112 -1 -17.1322 141.930 -16.9857 142.079 TC -17.0252 142.155 7 9 158
1950064S13146 1950 18 SP EA NOT_NAMED 1950-03-07 11:00:00 TS -17.3064 142.226 main 0 0 P_____P__PO___ SH181950 -17.2755 142.307 -1 -17.4472 142.025 -17.2337 142.190 TC -17.3000 142.300 7 9 152
1950064S13146 1950 18 SP EA NOT_NAMED 1950-03-07 12:00:00 TS -17.4341 142.300 main 0 0 O_____P__PP___ jtwc_sh SH181950 -17.4000 142.400 -1 -17.6015 142.090 -17.3543 142.262 TC -17.4148 142.350 7 8 150
1950064S13146 1950 18 SP EA NOT_NAMED 1950-03-07 15:00:00 TS -17.7855 142.517 main 0 0 P_____P__PP___ SH181950 -17.7223 142.570 -1 -18.0416 142.357 -17.7002 142.537 TC -17.7410 142.550 7 8 144
1950064S13146 1950 18 SP EA NOT_NAMED 1950-03-07 18:00:00 TS -18.0956 142.809 main 0 0 O_____P__PP___ jtwc_sh SH181950 -18.0000 142.800 -1 -18.4298 142.719 -18.0176 142.895 TC -18.0308 142.830 7 9 132
1950064S13146 1950 18 SP EA NOT_NAMED 1950-03-07 21:00:00 TS -18.3752 143.211 main 0 0 P_____P__PP___ SH181950 -18.2799 143.182 -1 -18.7435 143.164 -18.3007 143.325 TC -18.2721 143.199 7 10 122
1950064S13146 1950 18 SP EA NOT_NAMED 1950-03-07 23:00:00 TS -18.5280 143.535 996 bom main 0 0 P_____O__PO___ SH181950 -18.4363 143.514 -1 -18.9000 143.500 996 -18.4675 143.648 TC -18.4000 143.500 7 10 115
1950064S13146 1950 18 SP EA NOT_NAMED 1950-03-08 00:00:00 TS -18.5930 143.710 main 0 0 O_____P__PP___ jtwc_sh SH181950 -18.5000 143.700 -1 -18.9605 143.663 -18.5437 143.818 TC -18.4607 143.667 7 11 106
1950064S13146 1950 18 SP EA NOT_NAMED 1950-03-08 03:00:00 TS -18.7397 144.294 main 0 0 P_____P__PP___ SH181950 -18.6376 144.328 -1 -19.0803 144.213 -18.7408 144.363 TC -18.6021 144.241 7 12 101
1950064S13146 1950 18 SP EA NOT_NAMED 1950-03-08 06:00:00 TS -18.8183 144.934 main 0 0 O_____P__PP___ jtwc_sh SH181950 -18.7000 145.000 -1 -19.1206 144.831 -18.8862 144.949 TC -18.6847 144.888 7 12 95
1950064S13146 1950 18 SP EA NOT_NAMED 1950-03-08 09:00:00 TS -18.8517 145.570 main 0 0 P_____P__PP___ SH181950 -18.7373 145.615 -1 -19.0982 145.493 -18.9745 145.565 TC -18.7114 145.560 7 12 91
1950064S13146 1950 18 SP EA NOT_NAMED 1950-03-08 11:00:00 TS -18.8400 145.990 main 0 0 P_____P__PO___ SH181950 -18.7223 146.008 -1 -19.0567 145.946 -18.9988 145.987 TC -18.7000 146.000 7 12 87
1950064S13146 1950 18 SP EA NOT_NAMED 1950-03-08 12:00:00 TS -18.8188 146.194 main 0 0 O_____P__OP___ jtwc_sh SH181950 -18.7000 146.200 -1 -19.0299 146.174 -19.0000 146.200 TC -18.6639 146.197 7 12 81
1950064S13146 1950 18 SP EA NOT_NAMED 1950-03-08 13:00:00 TS -18.7811 146.394 bom main 10 10 P_____O__PP___ SH181950 -18.6591 146.387 -1 -19.0000 146.400 -18.9695 146.406 TC -18.6175 146.391 7 12 76
1950064S13146 1950 18 SP EA NOT_NAMED 1950-03-08 15:00:00 TS -18.6804 146.790 main 52 52 P_____P__PP___ SH181950 -18.5497 146.750 -1 -18.9098 146.843 -18.8859 146.831 TC -18.5068 146.775 7 12 75
1950064S13146 1950 18 SP EA NOT_NAMED 1950-03-08 18:00:00 TS -18.5268 147.389 main 98 98 O_____P__PP___ jtwc_sh SH181950 -18.4000 147.300 -1 -18.7504 147.513 -18.7391 147.491 TC -18.3445 147.343 7 12 78
1950064S13146 1950 18 SP EA NOT_NAMED 1950-03-08 21:00:00 TS -18.4327 148.002 main 128 128 P_____P__PP___ SH181950 -18.3248 147.885 -1 -18.6267 148.173 -18.6227 148.155 TC -18.2645 147.913 7 12 85
1950064S13146 1950 18 SP EA NOT_NAMED 1950-03-08 23:00:00 TS -18.4395 148.415 1000 bom main 153 153 P_____O__PO___ SH181950 -18.3520 148.292 -1 -18.6000 148.600 1000 -18.5932 148.589 TC -18.3000 148.300 7 12 94
1950064S13146 1950 18 SP EA NOT_NAMED 1950-03-09 00:00:00 TS -18.4715 148.628 main 160 160 O_____P__OP___ jtwc_sh SH181950 -18.4000 148.500 -1 -18.5983 148.812 -18.6000 148.800 TC 30 1000 -18.3593 148.526 7 13 106
1950064S13146 1950 18 SP EA NOT_NAMED 1950-03-09 03:00:00 TS -18.6664 149.276 main 179 179 P_____P__PP___ SH181950 -18.6674 149.150 -1 -18.6714 149.429 -18.6776 149.424 TC -18.6479 149.228 7 13 114
1950064S13146 1950 18 SP EA NOT_NAMED 1950-03-09 06:00:00 TS -19.0150 149.902 bom main 185 183 O_____O__OP___ jtwc_sh SH181950 -19.1000 149.800 -1 -18.9000 150.000 -18.9000 150.000 TC -19.0749 149.908 7 14 125
1950064S13146 1950 18 SP EA NOT_NAMED 1950-03-09 09:00:00 TS -19.4811 150.519 main 198 198 P_____P__PP___ SH181950 -19.5752 150.467 -1 -19.3040 150.587 -19.3458 150.579 TC -19.6054 150.496 7 15 133
1950064S13146 1950 18 SP EA NOT_NAMED 1950-03-09 11:00:00 TS -19.8699 150.876 main 219 218 P_____P__PO___ SH181950 -19.9720 150.848 -1 -19.6669 150.948 -19.7385 150.933 TC -20.0000 150.800 7 16 142
1950064S13146 1950 18 SP EA NOT_NAMED 1950-03-09 12:00:00 TS -20.0899 151.027 main 218 189 O_____P__PP___ jtwc_sh SH181950 -20.2000 151.000 -1 -19.8693 151.114 -19.9512 151.094 TC -20.2289 150.926 7 16 155
1950064S13146 1950 18 SP EA NOT_NAMED 1950-03-09 15:00:00 TS -20.8542 151.367 main 182 148 P_____P__PP___ SH181950 -21.0722 151.312 -1 -20.5333 151.523 -20.6058 151.488 TC -20.9874 151.198 7 16 161
1950064S13146 1950 18 SP EA NOT_NAMED 1950-03-09 17:00:00 TS -21.3650 151.487 bom main 138 121 P_____O__PP___ SH181950 -21.6522 151.394 -1 -21.0000 151.700 -21.0154 151.653 TC -21.5054 151.294 7 15 169
1950064S13146 1950 18 SP EA NOT_NAMED 1950-03-09 18:00:00 TS -21.6026 151.518 main 121 79 O_____P__OP___ jtwc_sh SH181950 -21.9000 151.400 -1 -21.2593 151.774 -21.2000 151.700 TC -21.7538 151.317 7 12 178
1950064S13146 1950 18 SP EA NOT_NAMED 1950-03-09 21:00:00 TS -22.1908 151.499 main 79 62 P_____P__PP___ SH181950 -22.4423 151.333 -1 -22.0220 151.866 -21.6475 151.673 TC -22.3998 151.292 7 10 188
1950064S13146 1950 18 SP EA NOT_NAMED 1950-03-09 23:00:00 TS -22.4588 151.387 996 bom main 61 51 P_____O__PO___ SH181950 -22.6473 151.192 -1 -22.4000 151.800 996 -21.8996 151.549 TC -22.7000 151.200 7 8 208
1950064S13146 1950 18 SP EA NOT_NAMED 1950-03-10 00:00:00 TS -22.5350 151.303 main 51 20 O_____P__PP___ jtwc_sh SH181950 -22.7000 151.100 -1 -22.4921 151.713 -22.0096 151.464 TC -22.7732 151.139 7 6 251
1950064S13146 1950 18 SP EA NOT_NAMED 1950-03-10 03:00:00 TS -22.5936 150.971 main 20 0 P_____P__PP___ SH181950 -22.6751 150.780 -1 -22.5278 151.293 -22.2667 151.148 TC -22.8232 150.854 7 7 273
1950064S13146 1950 18 SP EA NOT_NAMED 1950-03-10 06:00:00 TS -22.5016 150.579 main 10 10 O_____P__OP___ jtwc_sh SH181950 -22.5000 150.400 -1 -22.4196 150.824 -22.4000 150.800 TC -22.6886 150.470 7 7 284
1950064S13146 1950 18 SP EA NOT_NAMED 1950-03-10 07:00:00 TS -22.4741 150.459 bom main 11 10 P_____O__PP___ SH181950 -22.4719 150.273 -1 -22.4000 150.700 -22.4083 150.719 TC -22.6184 150.332 7 7 284
1950064S13146 1950 18 SP EA NOT_NAMED 1950-03-10 08:00:00 TS -22.4457 150.344 bom main 10 0 P_____O__PP___ SH181950 -22.4443 150.145 -1 -22.4000 150.600 -22.3988 150.638 TC -22.5410 150.194 7 7 287
1950064S13146 1950 18 SP EA NOT_NAMED 1950-03-10 09:00:00 TS -22.4103 150.231 main 0 0 P_____P__PP___ SH181950 -22.4151 150.020 -1 -22.3871 150.503 -22.3741 150.554 TC -22.4599 150.057 7 7 293
1950064S13146 1950 18 SP EA NOT_NAMED 1950-03-10 11:00:00 TS -22.3204 150.017 main 0 0 P_____P__PO___ SH181950 -22.3448 149.794 -1 -22.3230 150.318 -22.2896 150.382 TC -22.3000 149.800 7 6 296
1950064S13146 1950 18 SP EA NOT_NAMED 1950-03-10 12:00:00 TS -22.2728 149.928 main 0 0 O_____P__PP___ jtwc_sh SH181950 -22.3000 149.700 -1 -22.2764 150.228 -22.2350 150.293 TC -22.2526 149.721 7 5 310
1950064S13146 1950 18 SP EA NOT_NAMED 1950-03-10 15:00:00 TS -22.0916 149.720 main 20 10 P_____P__PP___ SH181950 -22.0997 149.558 -1 -22.1072 149.964 -22.0534 150.010 TC -22.0980 149.511 7 5 312
1950064S13146 1950 18 SP EA NOT_NAMED 1950-03-10 18:00:00 TS -21.9160 149.499 main 10 0 O_____P__OP___ jtwc_sh SH181950 -21.9000 149.400 -1 -21.9428 149.694 -21.9000 149.700 TC -21.9374 149.302 7 5 307
1950064S13146 1950 18 SP EA NOT_NAMED 1950-03-10 19:00:00 TS -21.8725 149.405 bom main 0 0 P_____O__PP___ SH181950 -21.8552 149.306 -1 -21.9000 149.600 -21.8666 149.589 TC -21.8854 149.223 7 6 291
1950064S13146 1950 18 SP EA NOT_NAMED 1950-03-10 21:00:00 TS -21.8032 149.180 main 0 0 P_____P__PP___ SH181950 -21.7848 149.068 -1 -21.8392 149.412 -21.8255 149.359 TC -21.7870 149.036 7 7 285
1950064S13146 1950 18 SP EA NOT_NAMED 1950-03-10 23:00:00 TS -21.7464 148.911 992 bom main 0 0 P_____O__PO___ SH181950 -21.7280 148.769 -1 -21.8000 149.200 992 4 -21.8061 149.120 TC -21.7000 148.800 7 8 282
1950064S13146 1950 18 SP EA NOT_NAMED 1950-03-11 00:00:00 TS -21.7148 148.747 main 0 0 O_____P__OP___ jtwc_sh SH181950 -21.7000 148.600 -1 -21.7910 149.078 -21.8000 149.000 TC 45 992 -21.6467 148.648 7 10 281
1950064S13146 1950 18 SP EA NOT_NAMED 1950-03-11 03:00:00 TS -21.6218 148.205 main 0 0 P_____P___P___ SH181950 -21.5926 148.030 -1 -21.8065 148.647 TC -21.4956 148.114 7 11 278
1950064S13146 1950 18 SP EA NOT_NAMED 1950-03-11 06:00:00 TS -21.5662 147.606 main 0 0 O_____P___P___ jtwc_sh SH181950 -21.5000 147.400 -1 -21.8783 148.126 -21.3864 147.498 7 11 275
1950064S13146 1950 18 SP EA NOT_NAMED 1950-03-11 09:00:00 TS -21.5257 146.999 main 0 0 P_____P___P___ SH181950 -21.3746 146.814 -1 -21.9970 147.528 -21.3567 146.841 7 11 271
1950064S13146 1950 18 SP EA NOT_NAMED 1950-03-11 11:00:00 TS -21.5556 146.579 main 0 0 P_____P___O___ SH181950 -21.3624 146.411 -1 -22.0976 147.093 -21.4000 146.400 7 12 262
1950064S13146 1950 18 SP EA NOT_NAMED 1950-03-11 12:00:00 TS -21.6063 146.363 main 0 0 O_____P___P___ jtwc_sh SH181950 -21.4000 146.200 -1 -22.1533 146.866 -21.4719 146.188 7 14 247
1950064S13146 1950 18 SP EA NOT_NAMED 1950-03-11 15:00:00 TS -21.9107 145.667 main 0 0 P_____P___P___ SH181950 -21.7627 145.486 -1 -22.3379 146.153 -21.7794 145.541 7 15 244
1950064S13146 1950 18 SP EA NOT_NAMED 1950-03-11 18:00:00 TS -22.2535 144.946 main 0 0 O_____P___P___ jtwc_sh SH181950 -22.2000 144.800 -1 -22.5417 145.401 -22.1445 144.898 7 14 244
1950064S13146 1950 18 SP EA NOT_NAMED 1950-03-11 21:00:00 TS -22.5116 144.320 main 0 0 P_____P___P___ SH181950 -22.4746 144.262 -1 -22.7558 144.625 -22.4636 144.282 7 12 249
1950064S13146 1950 18 SP EA NOT_NAMED 1950-03-11 23:00:00 TS -22.6095 143.946 1000 bom main 0 0 P_____O___O___ SH181950 -22.5779 143.950 -1 -22.9000 144.100 1000 -22.6000 143.900 7 10 259
1950064S13146 1950 18 SP EA NOT_NAMED 1950-03-12 00:00:00 TS -22.6057 143.775 main 0 0 O_________P___ jtwc_sh SH181950 -22.6000 143.800 -1 -22.6172 143.726 7 9 274
1950064S13146 1950 18 SP EA NOT_NAMED 1950-03-12 03:00:00 TS -22.5693 143.309 main 0 0 P_________P___ SH181950 -22.5673 143.342 -1 -22.5734 143.243 7 9 283
1950064S13146 1950 18 SP EA NOT_NAMED 1950-03-12 06:00:00 TS -22.4051 142.867 main 0 0 O_________P___ jtwc_sh SH181950 -22.4000 142.900 -1 -22.4154 142.802 7 9 295
1950064S13146 1950 18 SP EA NOT_NAMED 1950-03-12 09:00:00 TS -22.1802 142.427 main 0 0 P_________P___ SH181950 -22.1799 142.450 -1 -22.1808 142.381 7 10 301
1950064S13146 1950 18 SP EA NOT_NAMED 1950-03-12 11:00:00 TS -21.9979 142.133 main 0 0 P_________O___ SH181950 -21.9968 142.150 -1 -22.0000 142.100 7 10 304
1950064S13146 1950 18 SP EA NOT_NAMED 1950-03-12 12:00:00 TS -21.9043 141.980 main 0 0 O_________P___ jtwc_sh SH181950 -21.9000 142.000 -1 -21.9128 141.940 7 10 304
1950064S13146 1950 18 SP EA NOT_NAMED 1950-03-12 15:00:00 TS -21.6099 141.519 main 0 0 P_________P___ SH181950 -21.6074 141.550 -1 -21.6151 141.455 7 10 305
1950064S13146 1950 18 SP EA NOT_NAMED 1950-03-12 18:00:00 TS -21.2974 141.062 main 0 0 O_________P___ jtwc_sh SH181950 -21.3000 141.100 -1 -21.2922 140.985 7 11 306
1950064S13146 1950 18 SP EA NOT_NAMED 1950-03-12 21:00:00 TS -20.9839 140.598 main 0 0 P_________P___ SH181950 -20.9851 140.620 -1 -20.9817 140.554 7 10 306
1950064S13146 1950 18 SP EA NOT_NAMED 1950-03-12 23:00:00 TS -20.7924 140.318 main 0 0 P_________O___ SH181950 -20.7886 140.327 -1 -20.8000 140.300 7 9 307
1950064S13146 1950 18 SP EA NOT_NAMED 1950-03-13 00:00:00 TS -20.7066 140.198 main 0 0 O_________P___ jtwc_sh SH181950 -20.7000 140.200 -1 -20.7197 140.194 7 7 310
1950064S13146 1950 18 SP EA NOT_NAMED 1950-03-13 03:00:00 TS -20.4776 139.920 main 0 0 P_________P___ SH181950 -20.4623 139.920 -1 -20.5082 139.921 7 6 310
1950064S13146 1950 18 SP EA NOT_NAMED 1950-03-13 06:00:00 TS -20.3152 139.696 main 0 0 O_________P___ jtwc_sh SH181950 -20.3000 139.700 -1 -20.3456 139.688 7 5 301
1950064S13146 1950 18 SP EA NOT_NAMED 1950-03-13 09:00:00 TS -20.2210 139.464 main 0 0 P_________P___ SH181950 -20.2124 139.465 -1 -20.2381 139.463 7 5 287
1950064S13146 1950 18 SP EA NOT_NAMED 1950-03-13 11:00:00 TS -20.1982 139.297 main 0 0 P_________O___ SH181950 -20.1973 139.295 -1 -20.2000 139.300 7 5 276
1950064S13146 1950 18 SP EA NOT_NAMED 1950-03-13 12:00:00 TS -20.1958 139.198 main 0 0 O_________P___ jtwc_sh SH181950 -20.2000 139.200 -1 -20.1875 139.193 7 6 267
1950064S13146 1950 18 SP EA NOT_NAMED 1950-03-13 15:00:00 TS -20.2210 138.856 main 0 0 P_________P___ SH181950 -20.2351 138.858 -1 -20.1930 138.853 7 7 262
1950064S13146 1950 18 SP EA NOT_NAMED 1950-03-13 18:00:00 TS -20.2828 138.502 main 0 0 O_________P___ jtwc_sh SH181950 -20.3000 138.500 -1 -20.2483 138.506 7 7 259
1950064S13146 1950 18 SP EA NOT_NAMED 1950-03-13 21:00:00 TS -20.3398 138.175 main 0 0 P_________P___ SH181950 -20.3425 138.170 -1 -20.3345 138.185 7 6 258
1950064S13146 1950 18 SP EA NOT_NAMED 1950-03-13 23:00:00 TS -20.3851 137.987 main 0 0 P_________O___ SH181950 -20.3776 137.980 -1 -20.4000 138.000 7 5 255
1950064S13146 1950 18 SP EA NOT_NAMED 1950-03-14 00:00:00 TS -20.4080 137.908 main 0 0 O_________P___ jtwc_sh SH181950 -20.4000 137.900 -1 -20.4240 137.924 7 4 246
1950064S13146 1950 18 SP EA NOT_NAMED 1950-03-14 03:00:00 TS -20.4970 137.725 main 0 0 P_________P___ SH181950 -20.4924 137.720 -1 -20.5063 137.734 7 4 237
1950064S13146 1950 18 SP EA NOT_NAMED 1950-03-14 06:00:00 TS -20.6013 137.596 main 0 0 O_________P___ jtwc_sh SH181950 -20.6000 137.600 -1 -20.6038 137.588 7 3 228
1950064S13146 1950 18 SP EA NOT_NAMED 1950-03-14 09:00:00 TS -20.7005 137.485 main 0 0 P_________P___ SH181950 -20.6925 137.492 -1 -20.7165 137.470 7 3 223
1950064S13146 1950 18 SP EA NOT_NAMED 1950-03-14 11:00:00 TS -20.7740 137.420 main 0 0 P_________O___ SH181950 -20.7609 137.431 -1 -20.8000 137.400 7 3 220
1950064S13146 1950 18 SP EA NOT_NAMED 1950-03-14 12:00:00 TS -20.8095 137.386 main 0 0 O_________P___ jtwc_sh SH181950 -20.8000 137.400 -1 -20.8285 137.357 7 3 219
1950064S13146 1950 18 SP EA NOT_NAMED 1950-03-14 15:00:00 TS -20.9297 137.280 main 0 0 P_________P___ SH181950 -20.9350 137.300 -1 -20.9190 137.240 7 3 216
1950064S13146 1950 18 SP EA NOT_NAMED 1950-03-14 18:00:00 TS -21.0804 137.179 main 0 0 O_________P___ jtwc_sh SH181950 -21.1000 137.200 -1 -21.0412 137.137 7 4 210
1950064S13146 1950 18 SP EA NOT_NAMED 1950-03-14 21:00:00 TS -21.2504 137.083 main 0 0 P_________P___ SH181950 -21.2625 137.100 -1 -21.2262 137.050 7 4 204
1950064S13146 1950 18 SP EA NOT_NAMED 1950-03-14 23:00:00 TS -21.4052 137.022 main 0 0 P_________O___ SH181950 -21.4079 137.033 -1 -21.4000 137.000 7 5 199
1950064S13146 1950 18 SP EA NOT_NAMED 1950-03-15 00:00:00 TS -21.5020 136.989 main 0 0 O_________P___ jtwc_sh SH181950 -21.5000 137.000 -1 -21.5061 136.967 7 7 196
1950064S13146 1950 18 SP EA NOT_NAMED 1950-03-15 03:00:00 TS -21.8613 136.882 main 0 0 P_________P___ SH181950 -21.8475 136.885 -1 -21.8889 136.875 7 8 192
1950064S13146 1950 18 SP EA NOT_NAMED 1950-03-15 06:00:00 TS -22.3156 136.803 main 0 0 O_________P___ jtwc_sh SH181950 -22.3000 136.800 -1 -22.3467 136.808 7 10 186
1950064S13146 1950 18 SP EA NOT_NAMED 1950-03-15 09:00:00 TS -22.8404 136.769 main 0 0 P_________P___ SH181950 -22.8350 136.763 -1 -22.8514 136.783 7 11 181
1950064S13146 1950 18 SP EA NOT_NAMED 1950-03-15 11:00:00 TS -23.2097 136.785 main 0 0 P_________O___ SH181950 -23.2145 136.778 -1 -23.2000 136.800 7 11 176
1950064S13146 1950 18 SP EA NOT_NAMED 1950-03-15 12:00:00 TS -23.3887 136.807 main 0 0 O_________P___ jtwc_sh SH181950 -23.4000 136.800 -1 -23.3662 136.822 7 10 170
1950064S13146 1950 18 SP EA NOT_NAMED 1950-03-15 15:00:00 TS -23.8939 136.924 main 0 0 P_________P___ SH181950 -23.9000 136.920 -1 -23.8818 136.931 7 11 165
1950064S13146 1950 18 SP EA NOT_NAMED 1950-03-15 18:00:00 TS -24.4044 137.096 main 0 0 O_________P___ jtwc_sh SH181950 -24.4000 137.100 -1 -24.4132 137.088 7 11 162
1950064S13146 1950 18 SP EA NOT_NAMED 1950-03-15 21:00:00 TS -24.9493 137.291 main 0 0 P_________P___ SH181950 -24.9500 137.300 -1 -24.9479 137.273 7 12 162
1950064S13146 1950 18 SP EA NOT_NAMED 1950-03-15 23:00:00 TS -25.3132 137.424 main 0 0 P_________O___ SH181950 -25.3198 137.436 -1 -25.3000 137.400 7 11 162
1950064S13146 1950 18 SP EA NOT_NAMED 1950-03-16 00:00:00 TS -25.4892 137.484 main 0 0 O_________P___ jtwc_sh SH181950 -25.5000 137.500 -1 -25.4675 137.453 7 11 164
1950064S13146 1950 18 SP EA NOT_NAMED 1950-03-16 03:00:00 TS -25.9928 137.639 main 0 0 P_________P___ SH181950 -26.0074 137.650 -1 -25.9636 137.615 7 10 164
1950064S13146 1950 18 SP EA NOT_NAMED 1950-03-16 06:00:00 TS -26.4857 137.796 main 0 0 O_________P___ jtwc_sh SH181950 -26.5000 137.800 -1 -26.4572 137.787 7 10 163
1950064S13146 1950 18 SP EA NOT_NAMED 1950-03-16 09:00:00 TS -26.9809 137.985 main 0 0 P_________P___ SH181950 -26.9925 137.993 -1 -26.9578 137.970 7 11 161
1950064S13146 1950 18 SP EA NOT_NAMED 1950-03-16 11:00:00 TS -27.3184 138.121 main 0 0 P_________O___ SH181950 -27.3276 138.131 -1 -27.3000 138.100 7 11 161
1950064S13146 1950 18 SP EA NOT_NAMED 1950-03-16 12:00:00 TS -27.4898 138.187 main 0 0 O_________P___ jtwc_sh SH181950 -27.5000 138.200 -1 -27.4746 138.168 7 11 161
1950064S13146 1950 18 SP EA NOT_NAMED 1950-03-16 15:00:00 TS -28.0257 138.392 main 0 0 P_________P___ SH181950 -28.0400 138.402 -1 -28.0114 138.381 7 12 161
1950064S13146 1950 18 SP EA NOT_NAMED 1950-03-16 18:00:00 TS -28.5779 138.604 main 0 0 O_________P___ jtwc_sh SH181950 -28.6000 138.600 -1 -28.5631 138.606 7 12 160
1950064S13146 1950 18 SP EA NOT_NAMED 1950-03-16 21:00:00 NR -29.1239 138.841 main 0 0 __________P___ SH181950 -1 -29.1239 138.841 7 12 159
1950064S13146 1950 18 SP EA NOT_NAMED 1950-03-16 23:00:00 NR -29.5000 139.000 main 0 __________O___ SH181950 -1 -29.5000 139.000 7 12 160

Digital Typhoon Data and Search

About IBTrACS Database

This database is a web-friendly format of International Best Track Archive for Climate Stewardship (IBTrACS), a global best track data archive curated by NOAA dating back to 1842.

Updated: 2021-12-03